sensor_id;sensor_type;location;lat;lon;timestamp;temperature;humidity
16863;DHT22;52193;48.216;-1.698;2023-05-29T00:00:30;23.30;74.60
16863;DHT22;52193;48.216;-1.698;2023-05-29T00:02:57;23.30;74.70
16863;DHT22;52193;48.216;-1.698;2023-05-29T00:05:24;23.30;74.70
16863;DHT22;52193;48.216;-1.698;2023-05-29T00:07:51;23.30;74.70
16863;DHT22;52193;48.216;-1.698;2023-05-29T00:10:18;23.20;74.80
16863;DHT22;52193;48.216;-1.698;2023-05-29T00:12:46;23.20;74.90
16863;DHT22;52193;48.216;-1.698;2023-05-29T00:15:13;23.20;75.00
16863;DHT22;52193;48.216;-1.698;2023-05-29T00:17:40;23.20;75.00
16863;DHT22;52193;48.216;-1.698;2023-05-29T00:20:09;23.10;75.00
16863;DHT22;52193;48.216;-1.698;2023-05-29T00:22:37;23.20;75.00
16863;DHT22;52193;48.216;-1.698;2023-05-29T00:25:04;23.10;74.90
16863;DHT22;52193;48.216;-1.698;2023-05-29T00:27:32;23.00;75.80
16863;DHT22;52193;48.216;-1.698;2023-05-29T00:30:00;23.00;75.30
16863;DHT22;52193;48.216;-1.698;2023-05-29T00:32:28;23.00;75.30
16863;DHT22;52193;48.216;-1.698;2023-05-29T00:34:55;22.90;75.30
16863;DHT22;52193;48.216;-1.698;2023-05-29T00:37:22;22.90;75.40
16863;DHT22;52193;48.216;-1.698;2023-05-29T00:39:50;22.90;75.40
16863;DHT22;52193;48.216;-1.698;2023-05-29T00:42:16;22.80;75.40
16863;DHT22;52193;48.216;-1.698;2023-05-29T00:44:43;22.80;75.50
16863;DHT22;52193;48.216;-1.698;2023-05-29T00:47:13;22.80;75.50
16863;DHT22;52193;48.216;-1.698;2023-05-29T00:49:40;22.70;75.60
16863;DHT22;52193;48.216;-1.698;2023-05-29T00:52:09;22.70;75.80
16863;DHT22;52193;48.216;-1.698;2023-05-29T00:54:37;22.60;75.80
16863;DHT22;52193;48.216;-1.698;2023-05-29T00:57:04;22.60;75.90
16863;DHT22;52193;48.216;-1.698;2023-05-29T00:59:33;22.60;76.00
16863;DHT22;52193;48.216;-1.698;2023-05-29T01:02:01;22.60;76.00
16863;DHT22;52193;48.216;-1.698;2023-05-29T01:04:30;22.50;76.00
16863;DHT22;52193;48.216;-1.698;2023-05-29T01:07:00;22.40;76.00
16863;DHT22;52193;48.216;-1.698;2023-05-29T01:09:28;22.40;76.20
16863;DHT22;52193;48.216;-1.698;2023-05-29T01:12:03;22.30;76.40
16863;DHT22;52193;48.216;-1.698;2023-05-29T01:14:45;22.40;76.50
16863;DHT22;52193;48.216;-1.698;2023-05-29T01:17:17;22.40;76.50
16863;DHT22;52193;48.216;-1.698;2023-05-29T01:20:08;22.40;76.40
16863;DHT22;52193;48.216;-1.698;2023-05-29T01:22:58;22.40;76.50
16863;DHT22;52193;48.216;-1.698;2023-05-29T01:25:40;22.40;76.50
16863;DHT22;52193;48.216;-1.698;2023-05-29T01:28:11;22.30;76.60
16863;DHT22;52193;48.216;-1.698;2023-05-29T01:30:40;22.30;76.60
16863;DHT22;52193;48.216;-1.698;2023-05-29T01:33:07;22.30;76.80
16863;DHT22;52193;48.216;-1.698;2023-05-29T01:35:35;22.20;76.60
16863;DHT22;52193;48.216;-1.698;2023-05-29T01:38:02;22.20;76.70
16863;DHT22;52193;48.216;-1.698;2023-05-29T01:40:29;22.20;76.70
16863;DHT22;52193;48.216;-1.698;2023-05-29T01:42:56;22.10;76.70
16863;DHT22;52193;48.216;-1.698;2023-05-29T01:45:24;22.20;76.80
16863;DHT22;52193;48.216;-1.698;2023-05-29T01:47:53;22.10;76.80
16863;DHT22;52193;48.216;-1.698;2023-05-29T01:50:21;22.10;76.90
16863;DHT22;52193;48.216;-1.698;2023-05-29T01:52:51;22.00;77.00
16863;DHT22;52193;48.216;-1.698;2023-05-29T01:55:18;22.00;77.10
16863;DHT22;52193;48.216;-1.698;2023-05-29T01:57:45;22.10;77.00
16863;DHT22;52193;48.216;-1.698;2023-05-29T02:00:13;22.00;76.90
16863;DHT22;52193;48.216;-1.698;2023-05-29T02:02:41;21.90;77.10
16863;DHT22;52193;48.216;-1.698;2023-05-29T02:05:10;22.00;77.20
16863;DHT22;52193;48.216;-1.698;2023-05-29T02:07:37;21.90;77.10
16863;DHT22;52193;48.216;-1.698;2023-05-29T02:10:04;21.90;77.10
16863;DHT22;52193;48.216;-1.698;2023-05-29T02:12:31;21.90;77.20
16863;DHT22;52193;48.216;-1.698;2023-05-29T02:14:58;21.90;77.20
16863;DHT22;52193;48.216;-1.698;2023-05-29T02:17:25;21.80;77.10
16863;DHT22;52193;48.216;-1.698;2023-05-29T02:19:53;21.90;77.20
16863;DHT22;52193;48.216;-1.698;2023-05-29T02:22:20;21.80;77.20
16863;DHT22;52193;48.216;-1.698;2023-05-29T02:24:47;21.80;77.20
16863;DHT22;52193;48.216;-1.698;2023-05-29T02:27:14;21.80;77.20
16863;DHT22;52193;48.216;-1.698;2023-05-29T02:29:41;21.70;77.20
16863;DHT22;52193;48.216;-1.698;2023-05-29T02:32:08;21.80;77.30
16863;DHT22;52193;48.216;-1.698;2023-05-29T02:34:35;21.70;77.30
16863;DHT22;52193;48.216;-1.698;2023-05-29T02:37:04;21.70;77.30
16863;DHT22;52193;48.216;-1.698;2023-05-29T02:39:31;21.70;78.00
16863;DHT22;52193;48.216;-1.698;2023-05-29T02:41:58;21.70;77.40
16863;DHT22;52193;48.216;-1.698;2023-05-29T02:44:24;21.60;77.30
16863;DHT22;52193;48.216;-1.698;2023-05-29T02:46:51;21.60;77.40
16863;DHT22;52193;48.216;-1.698;2023-05-29T02:49:18;21.60;77.40
16863;DHT22;52193;48.216;-1.698;2023-05-29T02:51:45;21.60;77.30
16863;DHT22;52193;48.216;-1.698;2023-05-29T02:54:13;21.60;77.40
16863;DHT22;52193;48.216;-1.698;2023-05-29T02:56:40;21.50;77.40
16863;DHT22;52193;48.216;-1.698;2023-05-29T02:59:07;21.50;77.50
16863;DHT22;52193;48.216;-1.698;2023-05-29T03:01:34;21.40;77.50
16863;DHT22;52193;48.216;-1.698;2023-05-29T03:04:01;21.40;77.60
16863;DHT22;52193;48.216;-1.698;2023-05-29T03:06:28;21.40;77.60
16863;DHT22;52193;48.216;-1.698;2023-05-29T03:08:55;21.40;77.60
16863;DHT22;52193;48.216;-1.698;2023-05-29T03:11:26;21.30;77.60
16863;DHT22;52193;48.216;-1.698;2023-05-29T03:13:54;21.30;77.70
16863;DHT22;52193;48.216;-1.698;2023-05-29T03:16:21;21.30;77.80
16863;DHT22;52193;48.216;-1.698;2023-05-29T03:18:48;21.20;77.70
16863;DHT22;52193;48.216;-1.698;2023-05-29T03:21:16;21.20;77.70
16863;DHT22;52193;48.216;-1.698;2023-05-29T03:23:43;21.20;77.80
16863;DHT22;52193;48.216;-1.698;2023-05-29T03:26:10;21.20;77.90
16863;DHT22;52193;48.216;-1.698;2023-05-29T03:28:39;21.10;77.80
16863;DHT22;52193;48.216;-1.698;2023-05-29T03:31:06;21.00;78.00
16863;DHT22;52193;48.216;-1.698;2023-05-29T03:33:34;21.00;77.90
16863;DHT22;52193;48.216;-1.698;2023-05-29T03:36:01;21.00;78.00
16863;DHT22;52193;48.216;-1.698;2023-05-29T03:38:28;21.00;78.00
16863;DHT22;52193;48.216;-1.698;2023-05-29T03:40:55;21.00;77.90
16863;DHT22;52193;48.216;-1.698;2023-05-29T03:43:22;20.90;78.00
16863;DHT22;52193;48.216;-1.698;2023-05-29T03:45:50;20.90;78.00
16863;DHT22;52193;48.216;-1.698;2023-05-29T03:48:17;20.90;78.10
16863;DHT22;52193;48.216;-1.698;2023-05-29T03:50:45;20.80;78.00
16863;DHT22;52193;48.216;-1.698;2023-05-29T03:53:12;20.80;78.10
16863;DHT22;52193;48.216;-1.698;2023-05-29T03:55:39;20.80;78.10
16863;DHT22;52193;48.216;-1.698;2023-05-29T03:58:06;20.80;78.10
16863;DHT22;52193;48.216;-1.698;2023-05-29T04:00:33;20.80;78.20
16863;DHT22;52193;48.216;-1.698;2023-05-29T04:03:01;20.80;78.00
16863;DHT22;52193;48.216;-1.698;2023-05-29T04:05:28;20.70;78.00
16863;DHT22;52193;48.216;-1.698;2023-05-29T04:07:56;20.70;78.10
16863;DHT22;52193;48.216;-1.698;2023-05-29T04:10:23;20.70;78.10
16863;DHT22;52193;48.216;-1.698;2023-05-29T04:12:51;20.70;78.10
16863;DHT22;52193;48.216;-1.698;2023-05-29T04:15:18;20.60;78.10
16863;DHT22;52193;48.216;-1.698;2023-05-29T04:17:45;20.70;78.10
16863;DHT22;52193;48.216;-1.698;2023-05-29T04:20:13;20.60;78.00
16863;DHT22;52193;48.216;-1.698;2023-05-29T04:22:40;20.60;78.10
16863;DHT22;52193;48.216;-1.698;2023-05-29T04:25:07;20.60;78.20
16863;DHT22;52193;48.216;-1.698;2023-05-29T04:27:34;20.60;78.00
16863;DHT22;52193;48.216;-1.698;2023-05-29T04:30:03;20.60;77.90
16863;DHT22;52193;48.216;-1.698;2023-05-29T04:32:30;20.60;78.00
16863;DHT22;52193;48.216;-1.698;2023-05-29T04:34:58;20.50;78.00
16863;DHT22;52193;48.216;-1.698;2023-05-29T04:37:29;20.40;77.90
16863;DHT22;52193;48.216;-1.698;2023-05-29T04:39:57;20.40;78.00
16863;DHT22;52193;48.216;-1.698;2023-05-29T04:42:25;20.40;78.10
16863;DHT22;52193;48.216;-1.698;2023-05-29T04:44:52;20.40;77.90
16863;DHT22;52193;48.216;-1.698;2023-05-29T04:47:19;20.40;77.80
16863;DHT22;52193;48.216;-1.698;2023-05-29T04:49:47;20.40;77.80
16863;DHT22;52193;48.216;-1.698;2023-05-29T04:52:15;20.40;77.80
16863;DHT22;52193;48.216;-1.698;2023-05-29T04:54:44;20.40;77.80
16863;DHT22;52193;48.216;-1.698;2023-05-29T04:57:11;20.40;77.80
16863;DHT22;52193;48.216;-1.698;2023-05-29T04:59:38;20.40;77.80
16863;DHT22;52193;48.216;-1.698;2023-05-29T05:02:04;20.40;77.80
16863;DHT22;52193;48.216;-1.698;2023-05-29T05:04:32;20.40;77.90
16863;DHT22;52193;48.216;-1.698;2023-05-29T05:06:59;20.40;77.90
16863;DHT22;52193;48.216;-1.698;2023-05-29T05:09:27;20.50;77.90
16863;DHT22;52193;48.216;-1.698;2023-05-29T05:11:55;20.40;77.90
16863;DHT22;52193;48.216;-1.698;2023-05-29T05:14:22;20.40;78.10
16863;DHT22;52193;48.216;-1.698;2023-05-29T05:16:49;20.40;78.00
16863;DHT22;52193;48.216;-1.698;2023-05-29T05:19:16;20.40;78.00
16863;DHT22;52193;48.216;-1.698;2023-05-29T05:21:43;20.40;77.90
16863;DHT22;52193;48.216;-1.698;2023-05-29T05:24:10;20.40;77.90
16863;DHT22;52193;48.216;-1.698;2023-05-29T05:26:37;20.40;77.90
16863;DHT22;52193;48.216;-1.698;2023-05-29T05:29:05;20.40;78.00
16863;DHT22;52193;48.216;-1.698;2023-05-29T05:31:32;20.40;78.00
16863;DHT22;52193;48.216;-1.698;2023-05-29T05:33:59;20.40;77.90
16863;DHT22;52193;48.216;-1.698;2023-05-29T05:36:26;20.40;77.80
16863;DHT22;52193;48.216;-1.698;2023-05-29T05:38:53;20.40;77.90
16863;DHT22;52193;48.216;-1.698;2023-05-29T05:41:20;20.40;77.90
16863;DHT22;52193;48.216;-1.698;2023-05-29T05:43:47;20.40;78.00
16863;DHT22;52193;48.216;-1.698;2023-05-29T05:46:15;20.40;78.00
16863;DHT22;52193;48.216;-1.698;2023-05-29T05:48:43;20.40;78.00
16863;DHT22;52193;48.216;-1.698;2023-05-29T05:51:10;20.40;78.00
16863;DHT22;52193;48.216;-1.698;2023-05-29T05:53:37;20.40;78.00
16863;DHT22;52193;48.216;-1.698;2023-05-29T05:56:04;20.50;78.00
16863;DHT22;52193;48.216;-1.698;2023-05-29T05:58:31;20.40;77.90
16863;DHT22;52193;48.216;-1.698;2023-05-29T06:00:58;20.50;78.00
16863;DHT22;52193;48.216;-1.698;2023-05-29T06:03:28;20.50;77.90
16863;DHT22;52193;48.216;-1.698;2023-05-29T06:05:55;20.50;77.80
16863;DHT22;52193;48.216;-1.698;2023-05-29T06:08:21;20.60;78.00
16863;DHT22;52193;48.216;-1.698;2023-05-29T06:10:48;20.60;77.90
16863;DHT22;52193;48.216;-1.698;2023-05-29T06:13:15;20.70;77.90
16863;DHT22;52193;48.216;-1.698;2023-05-29T06:15:43;20.70;77.90
16863;DHT22;52193;48.216;-1.698;2023-05-29T06:18:10;20.70;77.70
16863;DHT22;52193;48.216;-1.698;2023-05-29T06:20:38;20.80;77.80
16863;DHT22;52193;48.216;-1.698;2023-05-29T06:23:05;20.80;77.60
16863;DHT22;52193;48.216;-1.698;2023-05-29T06:25:32;20.90;77.60
16863;DHT22;52193;48.216;-1.698;2023-05-29T06:27:59;20.90;77.50
16863;DHT22;52193;48.216;-1.698;2023-05-29T06:30:26;21.00;77.50
16863;DHT22;52193;48.216;-1.698;2023-05-29T06:32:54;21.00;77.50
16863;DHT22;52193;48.216;-1.698;2023-05-29T06:35:20;21.00;77.40
16863;DHT22;52193;48.216;-1.698;2023-05-29T06:37:49;21.10;77.50
16863;DHT22;52193;48.216;-1.698;2023-05-29T06:40:16;21.10;77.40
16863;DHT22;52193;48.216;-1.698;2023-05-29T06:42:43;21.20;77.40
16863;DHT22;52193;48.216;-1.698;2023-05-29T06:45:10;21.20;77.10
16863;DHT22;52193;48.216;-1.698;2023-05-29T06:47:39;21.30;77.10
16863;DHT22;52193;48.216;-1.698;2023-05-29T06:50:07;21.40;77.00
16863;DHT22;52193;48.216;-1.698;2023-05-29T06:52:34;21.40;76.90
16863;DHT22;52193;48.216;-1.698;2023-05-29T06:55:03;21.50;76.80
16863;DHT22;52193;48.216;-1.698;2023-05-29T06:57:30;21.50;76.80
16863;DHT22;52193;48.216;-1.698;2023-05-29T06:59:57;21.60;76.80
16863;DHT22;52193;48.216;-1.698;2023-05-29T07:02:24;21.60;76.70
16863;DHT22;52193;48.216;-1.698;2023-05-29T07:04:51;21.70;76.70
16863;DHT22;52193;48.216;-1.698;2023-05-29T07:07:18;21.80;76.80
16863;DHT22;52193;48.216;-1.698;2023-05-29T07:09:45;21.90;76.60
16863;DHT22;52193;48.216;-1.698;2023-05-29T07:12:13;21.80;76.60
16863;DHT22;52193;48.216;-1.698;2023-05-29T07:14:40;21.90;76.70
16863;DHT22;52193;48.216;-1.698;2023-05-29T07:17:07;22.00;76.70
16863;DHT22;52193;48.216;-1.698;2023-05-29T07:19:34;22.00;76.60
16863;DHT22;52193;48.216;-1.698;2023-05-29T07:22:01;22.10;76.60
16863;DHT22;52193;48.216;-1.698;2023-05-29T07:24:28;22.20;76.60
16863;DHT22;52193;48.216;-1.698;2023-05-29T07:26:55;22.20;76.60
16863;DHT22;52193;48.216;-1.698;2023-05-29T07:29:23;22.20;76.60
16863;DHT22;52193;48.216;-1.698;2023-05-29T07:31:50;22.20;76.60
16863;DHT22;52193;48.216;-1.698;2023-05-29T07:34:17;22.30;76.70
16863;DHT22;52193;48.216;-1.698;2023-05-29T07:36:58;22.40;76.50
16863;DHT22;52193;48.216;-1.698;2023-05-29T07:39:26;22.50;76.60
16863;DHT22;52193;48.216;-1.698;2023-05-29T07:41:53;22.50;76.50
16863;DHT22;52193;48.216;-1.698;2023-05-29T07:44:20;22.50;76.60
16863;DHT22;52193;48.216;-1.698;2023-05-29T07:46:49;22.50;76.60
16863;DHT22;52193;48.216;-1.698;2023-05-29T07:49:16;22.60;76.60
16863;DHT22;52193;48.216;-1.698;2023-05-29T07:51:43;22.60;76.40
16863;DHT22;52193;48.216;-1.698;2023-05-29T07:54:10;22.70;76.40
16863;DHT22;52193;48.216;-1.698;2023-05-29T07:56:37;22.70;76.40
16863;DHT22;52193;48.216;-1.698;2023-05-29T07:59:06;22.80;76.40
16863;DHT22;52193;48.216;-1.698;2023-05-29T08:01:35;22.80;76.30
16863;DHT22;52193;48.216;-1.698;2023-05-29T08:04:03;22.80;76.30
16863;DHT22;52193;48.216;-1.698;2023-05-29T08:06:30;22.90;76.40
16863;DHT22;52193;48.216;-1.698;2023-05-29T08:08:58;23.00;76.40
16863;DHT22;52193;48.216;-1.698;2023-05-29T08:11:25;23.10;76.40
16863;DHT22;52193;48.216;-1.698;2023-05-29T08:13:52;23.20;76.30
16863;DHT22;52193;48.216;-1.698;2023-05-29T08:16:19;23.20;76.20
16863;DHT22;52193;48.216;-1.698;2023-05-29T08:18:48;23.30;76.20
16863;DHT22;52193;48.216;-1.698;2023-05-29T08:21:16;23.30;76.30
16863;DHT22;52193;48.216;-1.698;2023-05-29T08:23:43;23.40;76.00
16863;DHT22;52193;48.216;-1.698;2023-05-29T08:26:10;23.40;75.90
16863;DHT22;52193;48.216;-1.698;2023-05-29T08:28:38;23.50;75.90
16863;DHT22;52193;48.216;-1.698;2023-05-29T08:31:05;23.50;75.90
16863;DHT22;52193;48.216;-1.698;2023-05-29T08:33:32;23.50;75.80
16863;DHT22;52193;48.216;-1.698;2023-05-29T08:36:00;23.60;75.80
16863;DHT22;52193;48.216;-1.698;2023-05-29T08:38:29;23.60;75.90
16863;DHT22;52193;48.216;-1.698;2023-05-29T08:40:56;23.70;75.80
16863;DHT22;52193;48.216;-1.698;2023-05-29T08:43:24;23.80;75.90
16863;DHT22;52193;48.216;-1.698;2023-05-29T08:45:54;23.80;75.70
16863;DHT22;52193;48.216;-1.698;2023-05-29T08:48:23;23.80;75.80
16863;DHT22;52193;48.216;-1.698;2023-05-29T08:50:53;23.90;75.70
16863;DHT22;52193;48.216;-1.698;2023-05-29T08:53:21;23.90;75.60
16863;DHT22;52193;48.216;-1.698;2023-05-29T08:55:50;23.90;75.60
16863;DHT22;52193;48.216;-1.698;2023-05-29T08:58:18;24.00;75.60
16863;DHT22;52193;48.216;-1.698;2023-05-29T09:00:46;24.00;76.40
16863;DHT22;52193;48.216;-1.698;2023-05-29T09:03:14;24.00;75.70
16863;DHT22;52193;48.216;-1.698;2023-05-29T09:05:41;24.10;75.70
16863;DHT22;52193;48.216;-1.698;2023-05-29T09:08:09;24.10;75.70
16863;DHT22;52193;48.216;-1.698;2023-05-29T09:10:37;24.20;75.70
16863;DHT22;52193;48.216;-1.698;2023-05-29T09:13:06;24.30;75.70
16863;DHT22;52193;48.216;-1.698;2023-05-29T09:15:34;24.30;75.60
16863;DHT22;52193;48.216;-1.698;2023-05-29T09:18:02;24.40;75.70
16863;DHT22;52193;48.216;-1.698;2023-05-29T09:20:30;24.40;75.70
16863;DHT22;52193;48.216;-1.698;2023-05-29T09:22:58;24.50;75.60
16863;DHT22;52193;48.216;-1.698;2023-05-29T09:25:27;24.60;75.60
16863;DHT22;52193;48.216;-1.698;2023-05-29T09:27:58;24.60;75.40
16863;DHT22;52193;48.216;-1.698;2023-05-29T09:30:36;24.80;75.50
16863;DHT22;52193;48.216;-1.698;2023-05-29T09:33:04;24.90;75.50
16863;DHT22;52193;48.216;-1.698;2023-05-29T09:35:35;24.90;75.40
16863;DHT22;52193;48.216;-1.698;2023-05-29T09:38:03;24.90;75.20
16863;DHT22;52193;48.216;-1.698;2023-05-29T09:40:32;24.90;75.20
16863;DHT22;52193;48.216;-1.698;2023-05-29T09:43:08;24.90;75.20
16863;DHT22;52193;48.216;-1.698;2023-05-29T09:45:45;25.00;75.20
16863;DHT22;52193;48.216;-1.698;2023-05-29T09:48:14;25.00;75.30
16863;DHT22;52193;48.216;-1.698;2023-05-29T09:50:41;25.00;75.10
16863;DHT22;52193;48.216;-1.698;2023-05-29T09:53:17;25.00;75.10
16863;DHT22;52193;48.216;-1.698;2023-05-29T09:55:46;25.00;76.00
16863;DHT22;52193;48.216;-1.698;2023-05-29T09:58:14;25.00;75.20
16863;DHT22;52193;48.216;-1.698;2023-05-29T10:00:43;25.10;75.30
16863;DHT22;52193;48.216;-1.698;2023-05-29T10:03:10;25.00;75.30
16863;DHT22;52193;48.216;-1.698;2023-05-29T10:05:38;25.10;75.30
16863;DHT22;52193;48.216;-1.698;2023-05-29T10:08:05;25.20;75.20
16863;DHT22;52193;48.216;-1.698;2023-05-29T10:10:34;25.30;75.10
16863;DHT22;52193;48.216;-1.698;2023-05-29T10:13:03;25.30;75.00
16863;DHT22;52193;48.216;-1.698;2023-05-29T10:15:32;25.40;75.00
16863;DHT22;52193;48.216;-1.698;2023-05-29T10:18:03;25.40;74.90
16863;DHT22;52193;48.216;-1.698;2023-05-29T10:20:31;25.50;74.90
16863;DHT22;52193;48.216;-1.698;2023-05-29T10:23:00;25.60;74.80
16863;DHT22;52193;48.216;-1.698;2023-05-29T10:25:30;25.70;74.60
16863;DHT22;52193;48.216;-1.698;2023-05-29T10:27:58;25.80;74.40
16863;DHT22;52193;48.216;-1.698;2023-05-29T10:30:30;25.90;74.20
16863;DHT22;52193;48.216;-1.698;2023-05-29T10:36:10;26.10;73.90
16863;DHT22;52193;48.216;-1.698;2023-05-29T10:38:41;26.30;73.90
16863;DHT22;52193;48.216;-1.698;2023-05-29T10:41:33;26.40;73.90
16863;DHT22;52193;48.216;-1.698;2023-05-29T10:47:22;26.60;73.70
16863;DHT22;52193;48.216;-1.698;2023-05-29T10:49:50;26.70;73.60
16863;DHT22;52193;48.216;-1.698;2023-05-29T10:52:20;26.80;73.60
16863;DHT22;52193;48.216;-1.698;2023-05-29T10:54:53;26.90;73.40
16863;DHT22;52193;48.216;-1.698;2023-05-29T10:57:23;27.00;73.30
16863;DHT22;52193;48.216;-1.698;2023-05-29T10:59:59;27.10;73.20
16863;DHT22;52193;48.216;-1.698;2023-05-29T11:02:26;27.20;73.20
16863;DHT22;52193;48.216;-1.698;2023-05-29T11:05:18;27.30;73.00
16863;DHT22;52193;48.216;-1.698;2023-05-29T11:07:56;27.40;72.90
16863;DHT22;52193;48.216;-1.698;2023-05-29T11:10:43;27.40;72.80
16863;DHT22;52193;48.216;-1.698;2023-05-29T11:13:11;27.40;72.80
16863;DHT22;52193;48.216;-1.698;2023-05-29T11:15:37;27.50;72.80
16863;DHT22;52193;48.216;-1.698;2023-05-29T11:18:08;27.50;72.70
16863;DHT22;52193;48.216;-1.698;2023-05-29T11:20:43;27.60;72.60
16863;DHT22;52193;48.216;-1.698;2023-05-29T11:23:16;27.80;72.50
16863;DHT22;52193;48.216;-1.698;2023-05-29T11:25:46;27.90;72.50
16863;DHT22;52193;48.216;-1.698;2023-05-29T11:28:13;27.90;72.60
16863;DHT22;52193;48.216;-1.698;2023-05-29T11:30:42;27.90;72.60
16863;DHT22;52193;48.216;-1.698;2023-05-29T11:33:13;28.10;72.50
16863;DHT22;52193;48.216;-1.698;2023-05-29T11:35:42;28.20;72.50
16863;DHT22;52193;48.216;-1.698;2023-05-29T11:38:10;28.30;72.40
16863;DHT22;52193;48.216;-1.698;2023-05-29T11:40:38;28.40;72.10
16863;DHT22;52193;48.216;-1.698;2023-05-29T11:43:05;28.60;72.00
16863;DHT22;52193;48.216;-1.698;2023-05-29T11:45:33;28.80;71.80
16863;DHT22;52193;48.216;-1.698;2023-05-29T11:48:02;29.00;71.50
16863;DHT22;52193;48.216;-1.698;2023-05-29T11:50:30;29.20;70.90
16863;DHT22;52193;48.216;-1.698;2023-05-29T11:52:58;29.60;70.40
16863;DHT22;52193;48.216;-1.698;2023-05-29T11:55:26;29.90;69.80
16863;DHT22;52193;48.216;-1.698;2023-05-29T11:57:58;30.30;69.30
16863;DHT22;52193;48.216;-1.698;2023-05-29T12:00:29;30.70;68.70
16863;DHT22;52193;48.216;-1.698;2023-05-29T12:02:58;31.00;68.10
16863;DHT22;52193;48.216;-1.698;2023-05-29T12:05:29;31.40;67.80
16863;DHT22;52193;48.216;-1.698;2023-05-29T12:07:56;31.90;67.30
16863;DHT22;52193;48.216;-1.698;2023-05-29T12:10:24;32.30;66.50
16863;DHT22;52193;48.216;-1.698;2023-05-29T12:12:52;32.70;65.90
16863;DHT22;52193;48.216;-1.698;2023-05-29T12:15:22;33.10;65.20
16863;DHT22;52193;48.216;-1.698;2023-05-29T12:17:49;33.60;64.80
16863;DHT22;52193;48.216;-1.698;2023-05-29T12:20:17;34.10;64.10
16863;DHT22;52193;48.216;-1.698;2023-05-29T12:22:46;34.60;63.30
16863;DHT22;52193;48.216;-1.698;2023-05-29T12:25:14;35.10;62.50
16863;DHT22;52193;48.216;-1.698;2023-05-29T12:27:43;35.50;61.80
16863;DHT22;52193;48.216;-1.698;2023-05-29T12:30:13;36.10;61.30
16863;DHT22;52193;48.216;-1.698;2023-05-29T12:32:44;36.60;60.70
16863;DHT22;52193;48.216;-1.698;2023-05-29T12:35:16;37.20;60.00
16863;DHT22;52193;48.216;-1.698;2023-05-29T12:37:48;37.60;59.20
16863;DHT22;52193;48.216;-1.698;2023-05-29T12:40:16;38.20;58.70
16863;DHT22;52193;48.216;-1.698;2023-05-29T12:42:43;38.70;57.90
16863;DHT22;52193;48.216;-1.698;2023-05-29T12:45:11;39.30;57.30
16863;DHT22;52193;48.216;-1.698;2023-05-29T12:47:46;39.80;56.70
16863;DHT22;52193;48.216;-1.698;2023-05-29T12:50:24;40.50;55.90
16863;DHT22;52193;48.216;-1.698;2023-05-29T12:52:58;41.20;55.30
16863;DHT22;52193;48.216;-1.698;2023-05-29T12:55:26;41.60;54.70
16863;DHT22;52193;48.216;-1.698;2023-05-29T12:57:54;41.90;53.90
16863;DHT22;52193;48.216;-1.698;2023-05-29T13:00:21;42.40;53.40
16863;DHT22;52193;48.216;-1.698;2023-05-29T13:02:50;42.90;52.70
16863;DHT22;52193;48.216;-1.698;2023-05-29T13:05:17;43.30;52.10
16863;DHT22;52193;48.216;-1.698;2023-05-29T13:07:48;43.70;51.60
16863;DHT22;52193;48.216;-1.698;2023-05-29T13:10:15;44.50;51.00
16863;DHT22;52193;48.216;-1.698;2023-05-29T13:12:43;45.20;50.20
16863;DHT22;52193;48.216;-1.698;2023-05-29T13:15:11;46.00;49.40
16863;DHT22;52193;48.216;-1.698;2023-05-29T13:17:39;46.90;48.80
16863;DHT22;52193;48.216;-1.698;2023-05-29T13:20:10;47.60;48.20
16863;DHT22;52193;48.216;-1.698;2023-05-29T13:22:37;48.30;47.60
16863;DHT22;52193;48.216;-1.698;2023-05-29T13:25:05;49.10;47.10
16863;DHT22;52193;48.216;-1.698;2023-05-29T13:27:35;50.00;46.70
16863;DHT22;52193;48.216;-1.698;2023-05-29T13:30:03;50.90;46.20
16863;DHT22;52193;48.216;-1.698;2023-05-29T13:32:31;51.60;45.30
16863;DHT22;52193;48.216;-1.698;2023-05-29T13:34:58;52.10;44.80
16863;DHT22;52193;48.216;-1.698;2023-05-29T13:37:26;52.80;44.50
16863;DHT22;52193;48.216;-1.698;2023-05-29T13:39:54;53.30;43.90
16863;DHT22;52193;48.216;-1.698;2023-05-29T13:42:21;53.80;43.50
16863;DHT22;52193;48.216;-1.698;2023-05-29T13:44:49;54.20;42.90
16863;DHT22;52193;48.216;-1.698;2023-05-29T13:47:16;54.60;42.60
16863;DHT22;52193;48.216;-1.698;2023-05-29T13:49:43;54.90;42.00
16863;DHT22;52193;48.216;-1.698;2023-05-29T13:52:10;55.20;41.80
16863;DHT22;52193;48.216;-1.698;2023-05-29T13:54:38;55.50;41.60
16863;DHT22;52193;48.216;-1.698;2023-05-29T13:57:06;55.80;41.40
16863;DHT22;52193;48.216;-1.698;2023-05-29T13:59:34;55.80;41.00
16863;DHT22;52193;48.216;-1.698;2023-05-29T14:02:01;55.70;40.80
16863;DHT22;52193;48.216;-1.698;2023-05-29T14:04:29;55.80;40.90
16863;DHT22;52193;48.216;-1.698;2023-05-29T14:06:56;55.60;40.80
16863;DHT22;52193;48.216;-1.698;2023-05-29T14:09:23;55.50;40.80
16863;DHT22;52193;48.216;-1.698;2023-05-29T14:11:55;55.50;40.80
16863;DHT22;52193;48.216;-1.698;2023-05-29T14:14:22;55.20;40.70
16863;DHT22;52193;48.216;-1.698;2023-05-29T14:16:49;55.20;40.70
16863;DHT22;52193;48.216;-1.698;2023-05-29T14:19:17;55.10;40.50
16863;DHT22;52193;48.216;-1.698;2023-05-29T14:21:44;55.00;40.00
16863;DHT22;52193;48.216;-1.698;2023-05-29T14:24:11;55.00;39.90
16863;DHT22;52193;48.216;-1.698;2023-05-29T14:26:38;54.80;39.90
16863;DHT22;52193;48.216;-1.698;2023-05-29T14:29:08;54.70;40.00
16863;DHT22;52193;48.216;-1.698;2023-05-29T14:31:35;54.30;39.90
16863;DHT22;52193;48.216;-1.698;2023-05-29T14:34:02;54.00;40.00
16863;DHT22;52193;48.216;-1.698;2023-05-29T14:36:29;53.80;40.00
16863;DHT22;52193;48.216;-1.698;2023-05-29T14:38:56;53.50;40.10
16863;DHT22;52193;48.216;-1.698;2023-05-29T14:41:23;53.20;39.90
16863;DHT22;52193;48.216;-1.698;2023-05-29T14:43:51;53.00;39.90
16863;DHT22;52193;48.216;-1.698;2023-05-29T14:46:19;52.90;39.90
16863;DHT22;52193;48.216;-1.698;2023-05-29T14:48:46;52.60;40.00
16863;DHT22;52193;48.216;-1.698;2023-05-29T14:51:14;52.30;40.40
16863;DHT22;52193;48.216;-1.698;2023-05-29T14:53:43;52.00;40.50
16863;DHT22;52193;48.216;-1.698;2023-05-29T14:56:10;51.80;40.80
16863;DHT22;52193;48.216;-1.698;2023-05-29T14:58:37;51.30;40.90
16863;DHT22;52193;48.216;-1.698;2023-05-29T15:01:04;50.90;41.20
16863;DHT22;52193;48.216;-1.698;2023-05-29T15:03:32;50.60;41.50
16863;DHT22;52193;48.216;-1.698;2023-05-29T15:06:00;50.40;41.60
16863;DHT22;52193;48.216;-1.698;2023-05-29T15:08:28;50.10;42.20
16863;DHT22;52193;48.216;-1.698;2023-05-29T15:11:00;49.80;42.40
16863;DHT22;52193;48.216;-1.698;2023-05-29T15:13:26;49.50;42.60
16863;DHT22;52193;48.216;-1.698;2023-05-29T15:15:53;49.30;42.70
16863;DHT22;52193;48.216;-1.698;2023-05-29T15:18:20;49.00;42.80
16863;DHT22;52193;48.216;-1.698;2023-05-29T15:20:49;48.50;43.10
16863;DHT22;52193;48.216;-1.698;2023-05-29T15:23:16;48.30;43.30
16863;DHT22;52193;48.216;-1.698;2023-05-29T15:25:44;48.00;43.50
16863;DHT22;52193;48.216;-1.698;2023-05-29T15:28:11;47.50;43.70